createdAt,value
2022-08-03T00:01:36.322Z,19.40
2022-08-03T00:04:04.560Z,19.30
2022-08-03T00:06:36.789Z,19.30
2022-08-03T00:09:05.741Z,19.30
2022-08-03T00:11:32.830Z,19.30
2022-08-03T00:13:59.995Z,19.20
2022-08-03T00:16:26.912Z,19.20
2022-08-03T00:18:53.775Z,19.20
2022-08-03T00:21:20.639Z,19.20
2022-08-03T00:23:51.936Z,19.10
2022-08-03T00:26:21.043Z,19.10
2022-08-03T00:28:48.651Z,19.00
2022-08-03T00:31:29.678Z,19.00
2022-08-03T00:34:08.414Z,19.00
2022-08-03T00:36:43.572Z,19.00
2022-08-03T00:39:32.108Z,18.90
2022-08-03T00:42:28.596Z,18.80
2022-08-03T00:50:35.978Z,18.80
2022-08-03T00:53:11.640Z,18.80
2022-08-03T00:55:39.034Z,18.70
2022-08-03T00:58:06.799Z,18.60
2022-08-03T01:00:37.383Z,18.70
2022-08-03T01:03:05.084Z,18.70
2022-08-03T01:05:45.456Z,18.60
2022-08-03T01:12:00.279Z,18.60
2022-08-03T01:14:46.130Z,18.60
2022-08-03T01:17:36.073Z,18.50
2022-08-03T01:20:09.536Z,18.40
2022-08-03T01:23:09.277Z,18.40
2022-08-03T01:25:58.225Z,18.40
2022-08-03T01:28:53.271Z,18.40
2022-08-03T01:31:28.335Z,18.30
2022-08-03T01:34:02.665Z,18.30
2022-08-03T01:36:38.050Z,18.30
2022-08-03T01:39:16.117Z,18.20
2022-08-03T01:41:50.707Z,18.20
2022-08-03T01:44:29.478Z,18.20
2022-08-03T01:47:02.338Z,18.20
2022-08-03T01:49:32.386Z,18.20
2022-08-03T01:52:05.018Z,18.20
2022-08-03T01:54:44.652Z,18.20
2022-08-03T01:57:25.674Z,18.20
2022-08-03T01:59:55.129Z,18.20
2022-08-03T02:02:33.275Z,18.10
2022-08-03T02:07:57.065Z,18.10
2022-08-03T02:10:35.185Z,18.10
2022-08-03T02:13:05.474Z,18.10
2022-08-03T02:15:34.124Z,18.00
2022-08-03T02:18:03.211Z,18.00
2022-08-03T02:20:33.169Z,18.10
2022-08-03T02:23:00.379Z,18.00
2022-08-03T02:25:29.138Z,18.00
2022-08-03T02:27:59.699Z,17.90
2022-08-03T02:30:33.351Z,17.90
2022-08-03T02:33:01.840Z,17.90
2022-08-03T02:35:30.723Z,17.90
2022-08-03T02:38:04.859Z,17.90
2022-08-03T02:40:33.058Z,17.90
2022-08-03T02:43:03.805Z,17.80
2022-08-03T02:45:42.581Z,17.80
2022-08-03T02:48:13.018Z,17.80
2022-08-03T02:50:41.857Z,17.80
2022-08-03T02:53:10.519Z,17.80
2022-08-03T02:55:43.154Z,17.80
2022-08-03T02:58:21.186Z,17.70
2022-08-03T03:01:12.056Z,17.70
2022-08-03T03:03:45.070Z,17.70
2022-08-03T03:06:13.494Z,17.70
2022-08-03T03:08:42.371Z,17.70
2022-08-03T03:11:10.309Z,17.70
2022-08-03T03:13:38.794Z,17.70
2022-08-03T03:16:08.147Z,17.70
2022-08-03T03:18:36.579Z,17.70
2022-08-03T03:21:04.525Z,17.70
2022-08-03T03:23:34.198Z,17.70
2022-08-03T03:26:02.677Z,17.70
2022-08-03T03:28:31.867Z,17.70
2022-08-03T03:30:59.406Z,17.70
2022-08-03T03:33:28.517Z,17.70
2022-08-03T03:35:57.260Z,17.80
2022-08-03T03:38:24.589Z,17.80
2022-08-03T03:40:58.402Z,17.80
2022-08-03T03:43:25.583Z,17.80
2022-08-03T03:45:53.821Z,17.90
2022-08-03T03:48:20.933Z,17.90
2022-08-03T03:50:49.816Z,17.90
2022-08-03T03:53:16.730Z,18.00
2022-08-03T03:55:59.142Z,18.00
2022-08-03T03:58:30.562Z,18.00
2022-08-03T04:00:57.551Z,18.10
2022-08-03T04:03:24.577Z,18.10
2022-08-03T04:06:10.325Z,18.20
2022-08-03T04:08:55.647Z,18.20
2022-08-03T04:11:47.665Z,18.30
2022-08-03T04:14:14.520Z,18.40
2022-08-03T04:16:51.821Z,18.50
2022-08-03T04:19:32.314Z,18.60
2022-08-03T04:22:03.078Z,18.60
2022-08-03T04:24:43.231Z,18.70
2022-08-03T04:27:12.904Z,18.80
2022-08-03T04:29:48.448Z,18.90
2022-08-03T04:32:20.358Z,19.00
2022-08-03T04:34:47.551Z,19.00
2022-08-03T04:37:58.263Z,19.10
2022-08-03T04:40:32.965Z,19.10
2022-08-03T04:43:00.775Z,19.20
2022-08-03T04:45:29.367Z,19.30
2022-08-03T04:47:57.359Z,19.40
2022-08-03T04:50:24.946Z,19.50
2022-08-03T04:52:51.747Z,19.50
2022-08-03T04:55:32.091Z,19.60
2022-08-03T04:57:59.655Z,19.60
2022-08-03T05:00:27.512Z,19.60
2022-08-03T05:02:54.554Z,19.70
2022-08-03T05:05:21.996Z,19.70
2022-08-03T05:07:50.553Z,19.80
2022-08-03T05:10:17.647Z,19.80
2022-08-03T05:12:46.015Z,19.90
2022-08-03T05:15:15.041Z,19.90
2022-08-03T05:17:42.043Z,20.00
2022-08-03T05:20:09.971Z,20.00
2022-08-03T05:22:36.977Z,20.00
2022-08-03T05:25:04.729Z,20.10
2022-08-03T05:27:31.622Z,20.10
2022-08-03T05:30:29.703Z,20.10
2022-08-03T05:32:45.882Z,20.10
2022-08-03T05:36:02.171Z,20.20
2022-08-03T05:38:00.007Z,20.20
2022-08-03T05:40:27.236Z,20.20
2022-08-03T05:42:54.070Z,20.20
2022-08-03T05:45:23.258Z,20.30
2022-08-03T05:47:54.215Z,20.40
2022-08-03T05:50:21.686Z,20.30
2022-08-03T05:52:49.146Z,20.40
2022-08-03T05:55:16.690Z,20.50
2022-08-03T05:57:45.849Z,20.60
2022-08-03T06:00:13.300Z,20.60
2022-08-03T06:02:43.174Z,20.70
2022-08-03T06:05:10.853Z,20.70
2022-08-03T06:07:38.227Z,20.70
2022-08-03T06:10:35.942Z,20.60
2022-08-03T06:12:53.563Z,20.60
2022-08-03T06:15:26.744Z,20.60
2022-08-03T06:17:53.709Z,20.60
2022-08-03T06:20:21.354Z,20.40
2022-08-03T06:23:00.189Z,20.40
2022-08-03T06:25:28.891Z,20.50
2022-08-03T06:27:55.809Z,20.50
2022-08-03T06:30:22.677Z,20.60
2022-08-03T06:32:51.783Z,20.60
2022-08-03T06:35:22.391Z,20.70
2022-08-03T06:37:51.854Z,20.70
2022-08-03T06:40:31.371Z,20.80
2022-08-03T06:42:59.537Z,20.90
2022-08-03T06:45:26.749Z,21.00
2022-08-03T06:48:01.985Z,21.00
2022-08-03T06:50:29.277Z,21.10
2022-08-03T06:53:04.970Z,21.10
2022-08-03T06:55:41.825Z,21.10
2022-08-03T06:58:09.814Z,21.20
2022-08-03T07:00:36.698Z,21.30
2022-08-03T07:03:03.597Z,21.40
2022-08-03T07:05:33.461Z,21.40
2022-08-03T07:08:02.301Z,21.40
2022-08-03T07:10:29.276Z,21.40
2022-08-03T07:12:57.006Z,21.50
2022-08-03T07:15:55.843Z,21.50
2022-08-03T07:18:16.548Z,21.60
2022-08-03T07:20:58.958Z,21.80
2022-08-03T07:23:41.321Z,22.00
2022-08-03T07:26:08.341Z,22.20
2022-08-03T07:28:44.453Z,22.40
2022-08-03T07:31:11.470Z,22.50
2022-08-03T07:33:47.504Z,22.70
2022-08-03T07:36:14.740Z,23.00
2022-08-03T07:49:04.291Z,23.90
2022-08-03T07:51:31.329Z,24.00
2022-08-03T07:54:01.900Z,24.20
2022-08-03T07:56:28.970Z,24.40
2022-08-03T07:58:56.254Z,24.40
2022-08-03T08:01:26.336Z,24.50
2022-08-03T08:03:56.297Z,24.70
2022-08-03T08:06:26.220Z,24.90
2022-08-03T08:09:02.423Z,25.20
2022-08-03T08:11:31.629Z,25.40
2022-08-03T08:14:21.649Z,25.60
2022-08-03T08:16:49.693Z,25.80
2022-08-03T08:19:16.860Z,26.00
2022-08-03T08:21:53.738Z,26.50
2022-08-03T08:24:46.608Z,27.50
2022-08-03T08:27:13.439Z,28.30
2022-08-03T08:29:47.542Z,29.20
2022-08-03T08:32:20.191Z,30.00
2022-08-03T08:34:47.045Z,30.90
2022-08-03T08:37:14.047Z,31.20
2022-08-03T08:39:41.451Z,31.20
2022-08-03T08:42:09.908Z,31.30
2022-08-03T08:44:36.823Z,31.40
2022-08-03T08:47:05.056Z,30.70
2022-08-03T08:50:03.838Z,29.60
2022-08-03T08:52:39.773Z,29.60
2022-08-03T08:55:22.176Z,29.90
2022-08-03T08:58:05.244Z,30.00
2022-08-03T09:00:32.757Z,30.00
2022-08-03T09:03:22.676Z,30.20
2022-08-03T09:06:00.935Z,30.50
2022-08-03T09:10:07.598Z,31.10
2022-08-03T09:16:01.273Z,32.20
2022-08-03T09:21:35.166Z,32.40
2022-08-03T09:28:52.861Z,32.30
2022-08-03T09:38:29.407Z,30.90
2022-08-03T09:52:32.074Z,30.40
2022-08-03T10:01:23.600Z,31.90
2022-08-03T10:04:04.832Z,31.60
2022-08-03T10:06:32.880Z,31.90
2022-08-03T10:09:14.333Z,32.40
2022-08-03T10:11:42.849Z,32.10
2022-08-03T10:14:11.534Z,32.30
2022-08-03T10:16:40.030Z,32.70
2022-08-03T10:19:08.517Z,33.00
2022-08-03T10:22:03.641Z,33.40
2022-08-03T10:24:34.028Z,33.60
2022-08-03T10:27:07.551Z,33.60
2022-08-03T10:29:39.015Z,33.70
2022-08-03T10:32:19.229Z,33.80
2022-08-03T10:35:00.322Z,34.10
2022-08-03T10:38:00.303Z,34.40
2022-08-03T10:43:37.152Z,35.10
2022-08-03T10:46:11.009Z,35.30
2022-08-03T10:51:35.763Z,35.40
2022-08-03T10:55:03.493Z,36.00
2022-08-03T11:00:25.717Z,36.10
2022-08-03T11:03:08.947Z,35.70
2022-08-03T11:06:09.447Z,35.40
2022-08-03T11:08:36.510Z,35.60
2022-08-03T11:11:18.665Z,35.60
2022-08-03T11:14:07.628Z,35.70
2022-08-03T11:17:22.259Z,35.70
2022-08-03T11:20:21.971Z,35.80
2022-08-03T11:22:51.427Z,35.20
2022-08-03T11:25:53.779Z,34.50
2022-08-03T11:28:49.448Z,34.30
2022-08-03T11:31:51.465Z,33.70
2022-08-03T11:38:10.824Z,33.00
2022-08-03T11:40:54.113Z,33.10
2022-08-03T11:49:33.502Z,33.70
2022-08-03T11:54:35.170Z,33.30
2022-08-03T11:57:02.073Z,32.60
2022-08-03T11:59:33.599Z,32.30
2022-08-03T12:02:19.171Z,31.90
2022-08-03T12:05:08.714Z,31.70
2022-08-03T12:08:03.596Z,32.10
2022-08-03T12:10:31.712Z,32.80
2022-08-03T12:13:01.139Z,33.60
2022-08-03T12:22:32.256Z,35.50
2022-08-03T12:24:59.237Z,35.50
2022-08-03T12:27:37.102Z,36.10
2022-08-03T12:30:14.412Z,35.90
2022-08-03T12:36:13.803Z,35.60
2022-08-03T12:38:55.556Z,35.80
2022-08-03T12:41:34.092Z,36.20
2022-08-03T12:44:14.410Z,36.10
2022-08-03T12:46:47.376Z,36.10
2022-08-03T12:49:17.459Z,35.80
2022-08-03T12:52:05.265Z,34.90
2022-08-03T12:54:59.114Z,35.50
2022-08-03T13:04:38.455Z,35.00
2022-08-03T13:14:03.171Z,32.80
2022-08-03T13:16:32.793Z,33.10
2022-08-03T13:29:53.516Z,34.60
2022-08-03T13:36:20.771Z,34.70
2022-08-03T13:39:03.059Z,34.90
2022-08-03T13:41:32.408Z,35.40
2022-08-03T13:44:29.341Z,36.20
2022-08-03T13:51:22.244Z,37.10
2022-08-03T14:01:34.340Z,38.00
2022-08-03T14:04:40.577Z,37.80
2022-08-03T14:07:10.264Z,37.10
2022-08-03T14:09:37.186Z,37.10
2022-08-03T14:17:50.876Z,37.50
2022-08-03T14:20:37.486Z,37.40
2022-08-03T14:23:29.280Z,37.80
2022-08-03T14:26:27.943Z,37.70
2022-08-03T14:29:00.262Z,37.80
2022-08-03T14:37:06.100Z,38.30
2022-08-03T14:42:20.565Z,38.00
2022-08-03T14:50:54.622Z,36.70
2022-08-03T14:53:52.526Z,37.20
2022-08-03T14:56:28.585Z,37.00
2022-08-03T14:59:19.411Z,36.90
2022-08-03T15:02:06.400Z,36.80
2022-08-03T15:04:33.234Z,36.30
2022-08-03T15:07:12.504Z,36.20
2022-08-03T15:09:42.669Z,35.70
2022-08-03T15:18:51.660Z,37.10
2022-08-03T15:21:20.815Z,36.60
2022-08-03T15:24:08.698Z,37.00
2022-08-03T15:26:41.212Z,37.10
2022-08-03T15:30:10.169Z,37.10
2022-08-03T15:32:37.401Z,37.80
2022-08-03T15:35:04.766Z,38.30
2022-08-03T15:40:35.587Z,38.20
2022-08-03T15:43:02.634Z,38.10
2022-08-03T15:45:36.294Z,38.00
2022-08-03T15:51:26.752Z,38.50
2022-08-03T15:54:03.121Z,38.00
2022-08-03T15:56:36.719Z,38.00
2022-08-03T16:05:37.749Z,36.20
2022-08-03T16:11:45.356Z,35.90
2022-08-03T16:20:29.703Z,35.00
2022-08-03T16:26:25.336Z,35.00
2022-08-03T16:28:55.349Z,35.00
2022-08-03T16:34:31.890Z,34.90
2022-08-03T16:37:04.779Z,34.60
2022-08-03T16:39:52.622Z,34.40
2022-08-03T16:42:19.626Z,34.30
2022-08-03T16:44:58.733Z,33.90
2022-08-03T16:50:27.676Z,33.00
2022-08-03T16:52:55.045Z,32.50
2022-08-03T16:55:53.808Z,32.10
2022-08-03T16:58:34.312Z,31.80
2022-08-03T17:01:21.862Z,31.40
2022-08-03T17:04:03.574Z,31.10
2022-08-03T17:06:44.974Z,30.70
2022-08-03T17:09:38.157Z,30.50
2022-08-03T17:12:30.245Z,30.20
2022-08-03T17:14:58.646Z,30.00
2022-08-03T17:17:37.617Z,29.80
2022-08-03T17:20:29.899Z,29.60
2022-08-03T17:23:07.363Z,29.50
2022-08-03T17:26:02.454Z,29.30
2022-08-03T17:29:01.698Z,29.20
2022-08-03T17:31:48.854Z,29.00
2022-08-03T17:34:26.285Z,28.80
2022-08-03T17:37:04.453Z,28.70
2022-08-03T17:39:57.163Z,28.50
2022-08-03T17:42:29.665Z,28.40
2022-08-03T17:45:02.119Z,28.20
2022-08-03T17:47:42.821Z,28.10
2022-08-03T17:50:24.127Z,27.90
2022-08-03T17:53:23.927Z,27.90
2022-08-03T17:56:44.723Z,27.70
2022-08-03T18:06:37.261Z,27.40
2022-08-03T18:10:06.831Z,27.30
2022-08-03T18:20:45.803Z,26.90
2022-08-03T18:23:25.275Z,26.80
2022-08-03T18:26:16.209Z,26.70
2022-08-03T18:31:59.789Z,26.50
2022-08-03T18:34:32.885Z,26.50
2022-08-03T18:39:49.661Z,26.20
2022-08-03T18:42:34.486Z,26.10
2022-08-03T18:45:14.988Z,26.00
2022-08-03T18:48:05.200Z,26.00
2022-08-03T18:50:48.212Z,25.80
2022-08-03T18:53:23.857Z,25.70
2022-08-03T18:56:38.018Z,25.60
2022-08-03T18:59:15.725Z,25.40
2022-08-03T19:02:00.069Z,25.20
2022-08-03T19:07:35.938Z,25.00
2022-08-03T19:10:11.025Z,25.00
2022-08-03T19:12:50.366Z,24.90
2022-08-03T19:15:41.296Z,24.80
2022-08-03T19:18:11.196Z,24.70
2022-08-03T19:20:38.307Z,24.60
2022-08-03T19:23:06.508Z,24.50
2022-08-03T19:25:38.458Z,24.50
2022-08-03T19:28:06.207Z,24.40
2022-08-03T19:30:46.167Z,24.30
2022-08-03T19:33:20.681Z,24.30
2022-08-03T19:35:54.904Z,24.20
2022-08-03T19:38:28.348Z,24.10
2022-08-03T19:41:02.978Z,24.00
2022-08-03T19:43:49.537Z,24.00
2022-08-03T19:46:21.814Z,23.90
2022-08-03T19:49:15.314Z,23.80
2022-08-03T19:51:58.964Z,23.80
2022-08-03T19:54:36.420Z,23.70
2022-08-03T19:57:17.646Z,23.70
2022-08-03T19:59:49.564Z,23.60
2022-08-03T20:02:25.800Z,23.50
2022-08-03T20:05:11.983Z,23.50
2022-08-03T20:07:47.792Z,23.50
2022-08-03T20:10:19.202Z,23.50
2022-08-03T20:12:47.375Z,23.40
2022-08-03T20:15:18.176Z,23.20
2022-08-03T20:17:56.546Z,23.20
2022-08-03T20:20:29.598Z,23.10
2022-08-03T20:22:58.411Z,23.00
2022-08-03T20:25:38.173Z,23.00
2022-08-03T20:28:14.090Z,22.90
2022-08-03T20:30:43.819Z,22.90
2022-08-03T20:33:11.462Z,22.90
2022-08-03T20:38:27.320Z,22.80
2022-08-03T20:40:54.593Z,22.70
2022-08-03T20:43:21.772Z,22.70
2022-08-03T20:45:59.159Z,22.60
2022-08-03T20:48:28.646Z,22.50
2022-08-03T20:50:56.538Z,22.50
2022-08-03T20:53:57.279Z,22.50
2022-08-03T20:56:10.621Z,22.40
2022-08-03T20:58:43.230Z,22.40
2022-08-03T21:01:17.954Z,22.40
2022-08-03T21:03:55.748Z,22.40
2022-08-03T21:06:27.435Z,22.40
2022-08-03T21:09:05.194Z,22.30
2022-08-03T21:11:46.842Z,22.30
2022-08-03T21:13:12.684Z,22.80
2022-08-03T21:14:19.485Z,22.40
2022-08-03T21:16:54.349Z,22.40
2022-08-03T21:19:22.975Z,22.50
2022-08-03T21:21:50.562Z,22.50
2022-08-03T21:24:19.818Z,22.50
2022-08-03T21:26:56.355Z,22.50
2022-08-03T21:29:24.121Z,22.50
2022-08-03T21:31:51.234Z,22.50
2022-08-03T21:34:19.977Z,22.50
2022-08-03T21:36:46.901Z,22.50
2022-08-03T21:39:14.042Z,22.50
2022-08-03T21:41:41.328Z,22.50
2022-08-03T21:44:08.742Z,22.50
2022-08-03T21:46:39.207Z,22.40
2022-08-03T21:50:05.405Z,22.30
2022-08-03T21:52:21.242Z,22.40
2022-08-03T21:54:52.279Z,22.50
2022-08-03T21:57:24.441Z,22.30
2022-08-03T22:00:07.825Z,22.30
2022-08-03T22:02:35.253Z,22.20
2022-08-03T22:05:05.122Z,22.10
2022-08-03T22:07:33.505Z,22.10
2022-08-03T22:10:02.043Z,22.00
2022-08-03T22:12:30.846Z,22.00
2022-08-03T22:15:01.171Z,21.80
2022-08-03T22:17:55.859Z,21.80
2022-08-03T22:20:18.094Z,21.70
2022-08-03T22:22:55.174Z,21.60
2022-08-03T22:25:29.365Z,21.50
2022-08-03T22:27:58.900Z,21.40
2022-08-03T22:30:26.044Z,21.40
2022-08-03T22:32:54.823Z,21.30
2022-08-03T22:35:24.486Z,21.20
2022-08-03T22:37:57.608Z,21.20
2022-08-03T22:40:25.855Z,21.10
2022-08-03T22:42:53.366Z,21.10
2022-08-03T22:46:06.404Z,21.00
2022-08-03T22:48:11.391Z,21.00
2022-08-03T22:50:39.411Z,20.90
2022-08-03T22:53:07.143Z,20.90
2022-08-03T22:55:34.370Z,20.80
2022-08-03T22:58:01.224Z,20.80
2022-08-03T23:00:28.060Z,20.70
2022-08-03T23:02:57.213Z,20.70
2022-08-03T23:06:01.114Z,20.60
2022-08-03T23:08:16.800Z,20.60
2022-08-03T23:10:47.191Z,20.60
2022-08-03T23:13:17.454Z,20.50
2022-08-03T23:15:55.077Z,20.50
2022-08-03T23:18:24.117Z,20.50
2022-08-03T23:20:57.454Z,20.50
2022-08-03T23:23:24.859Z,20.30
2022-08-03T23:25:52.416Z,20.30
2022-08-03T23:28:19.447Z,20.30
2022-08-03T23:30:48.509Z,20.30
2022-08-03T23:33:16.679Z,20.20
2022-08-03T23:36:20.105Z,20.20
2022-08-03T23:38:48.453Z,20.20
2022-08-03T23:41:18.617Z,20.10
2022-08-03T23:43:53.591Z,20.10
2022-08-03T23:46:25.899Z,20.00
2022-08-03T23:48:53.826Z,20.00
2022-08-03T23:51:57.256Z,19.90
2022-08-03T23:54:34.979Z,19.90
2022-08-03T23:57:09.386Z,19.90
2022-08-03T23:59:48.743Z,19.90
